Time;durP1;ratioP1;P1;durP2;ratioP2;P2;SDS_P1;SDS_P2;PMS_P1;PMS_P2;Temp;Humidity;BMP_temperature;BMP_pressure;BME280_temperature;BME280_humidity;BME280_pressure;Samples;Min_cycle;Max_cycle;Signal;HPM_P1;HPM_P2
2023/05/16 00:01:28;;;;;;;;;;;15.30;91.00;;;;;;5046114;28;19924;-69
2023/05/16 00:03:57;;;;;;;;;;;15.30;91.10;;;;;;5045859;28;19913;-69
2023/05/16 00:06:22;;;;;;;;;;;15.20;90.90;;;;;;5046234;28;19913;-69
2023/05/16 00:08:48;;;;;;;;;;;15.20;91.10;;;;;;5044654;28;19916;-70
2023/05/16 00:11:15;;;;;;;;;;;15.20;91.10;;;;;;5046140;28;19945;-69
2023/05/16 00:13:41;;;;;;;;;;;15.20;91.20;;;;;;5045609;28;19931;-69
2023/05/16 00:16:07;;;;;;;;;;;15.10;91.10;;;;;;5046035;28;20492;-69
2023/05/16 00:18:36;;;;;;;;;;;15.20;91.30;;;;;;5043850;28;20004;-69
2023/05/16 00:21:05;;;;;;;;;;;15.10;91.30;;;;;;5008400;28;19921;-69
2023/05/16 00:23:30;;;;;;;;;;;15.10;91.30;;;;;;5026051;28;19928;-69
2023/05/16 00:25:56;;;;;;;;;;;15.10;91.40;;;;;;5027781;28;20272;-69
2023/05/16 00:28:21;;;;;;;;;;;15.10;91.40;;;;;;5045948;28;20376;-69
2023/05/16 00:30:47;;;;;;;;;;;15.00;91.30;;;;;;5045826;28;19959;-69
2023/05/16 00:33:12;;;;;;;;;;;15.00;91.30;;;;;;5044966;28;19915;-69
2023/05/16 00:35:38;;;;;;;;;;;15.00;91.40;;;;;;5045715;28;19917;-69
2023/05/16 00:38:03;;;;;;;;;;;15.00;91.50;;;;;;5045699;28;19913;-69
2023/05/16 00:40:29;;;;;;;;;;;15.00;91.50;;;;;;5045595;28;19961;-69
2023/05/16 00:42:54;;;;;;;;;;;15.00;91.50;;;;;;5045381;28;20456;-69
2023/05/16 00:45:20;;;;;;;;;;;14.90;91.60;;;;;;5045708;28;20457;-69
2023/05/16 00:47:46;;;;;;;;;;;14.90;91.50;;;;;;5041816;28;20008;-69
2023/05/16 00:50:11;;;;;;;;;;;14.90;91.50;;;;;;5025736;28;19913;-68
2023/05/16 00:52:37;;;;;;;;;;;14.90;91.50;;;;;;5025007;28;19913;-69
2023/05/16 00:55:03;;;;;;;;;;;14.80;91.60;;;;;;5041024;28;20509;-69
2023/05/16 00:57:28;;;;;;;;;;;14.90;91.60;;;;;;5045090;28;19913;-69
2023/05/16 00:59:54;;;;;;;;;;;14.80;91.70;;;;;;5045506;28;19916;-69
2023/05/16 01:02:20;;;;;;;;;;;14.80;91.60;;;;;;5045029;28;19916;-69
2023/05/16 01:04:47;;;;;;;;;;;14.80;91.70;;;;;;5045625;28;19913;-69
2023/05/16 01:07:13;;;;;;;;;;;14.80;91.70;;;;;;5045619;28;19908;-69
2023/05/16 01:09:39;;;;;;;;;;;14.70;91.70;;;;;;5045393;28;19917;-69
2023/05/16 01:12:17;;;;;;;;;;;14.70;91.70;;;;;;5045170;28;20243;-69
2023/05/16 01:15:03;;;;;;;;;;;14.70;91.80;;;;;;5045304;28;19913;-69
2023/05/16 01:17:31;;;;;;;;;;;14.70;91.80;;;;;;5045311;28;19923;-69
2023/05/16 01:20:14;;;;;;;;;;;14.70;91.80;;;;;;5031686;28;19924;-69
2023/05/16 01:22:42;;;;;;;;;;;14.70;91.90;;;;;;5024959;28;20455;-69
2023/05/16 01:25:17;;;;;;;;;;;14.60;91.50;;;;;;5025269;28;19966;-69
2023/05/16 01:27:43;;;;;;;;;;;14.60;91.70;;;;;;5041327;28;19920;-69
2023/05/16 01:30:13;;;;;;;;;;;14.60;91.90;;;;;;5027105;28;20405;-69
2023/05/16 01:32:38;;;;;;;;;;;14.60;91.90;;;;;;5044639;28;19917;-69
2023/05/16 01:35:04;;;;;;;;;;;14.50;91.90;;;;;;5045160;28;19909;-69
2023/05/16 01:37:35;;;;;;;;;;;14.50;91.80;;;;;;5045075;28;19912;-68
2023/05/16 01:40:08;;;;;;;;;;;14.50;91.90;;;;;;5027261;28;19913;-68
2023/05/16 01:42:35;;;;;;;;;;;14.50;91.80;;;;;;5044142;28;19928;-69
2023/05/16 01:45:04;;;;;;;;;;;14.40;91.80;;;;;;5045080;28;19909;-69
2023/05/16 01:47:31;;;;;;;;;;;14.40;91.90;;;;;;5043301;28;20015;-69
2023/05/16 01:50:03;;;;;;;;;;;14.40;92.00;;;;;;5025144;28;20585;-69
2023/05/16 01:52:44;;;;;;;;;;;14.40;91.90;;;;;;5024693;28;19921;-68
2023/05/16 01:55:15;;;;;;;;;;;14.30;91.90;;;;;;5039938;28;19945;-68
2023/05/16 01:57:41;;;;;;;;;;;14.30;92.00;;;;;;5044380;28;20005;-68
2023/05/16 02:00:07;;;;;;;;;;;14.30;92.00;;;;;;5044808;28;19970;-69
2023/05/16 02:02:33;;;;;;;;;;;14.30;92.10;;;;;;5044432;28;20568;-69
2023/05/16 02:04:58;;;;;;;;;;;14.30;92.20;;;;;;5045866;28;19960;-68
2023/05/16 02:07:24;;;;;;;;;;;14.20;92.10;;;;;;5048052;28;19960;-69
2023/05/16 02:09:50;;;;;;;;;;;14.20;91.80;;;;;;5030068;28;19913;-69
2023/05/16 02:12:15;;;;;;;;;;;14.20;92.20;;;;;;5047656;28;20293;-68
2023/05/16 02:14:41;;;;;;;;;;;14.10;92.10;;;;;;5047955;28;19999;-69
2023/05/16 02:17:06;;;;;;;;;;;14.10;92.20;;;;;;5047724;28;20364;-69
2023/05/16 02:19:32;;;;;;;;;;;14.10;92.20;;;;;;5019956;28;19913;-69
2023/05/16 02:21:57;;;;;;;;;;;14.10;92.20;;;;;;5027575;28;19996;-68
2023/05/16 02:24:23;;;;;;;;;;;14.10;92.30;;;;;;5028007;28;20397;-68
2023/05/16 02:26:48;;;;;;;;;;;14.10;92.20;;;;;;5036586;28;20015;-68
2023/05/16 02:29:15;;;;;;;;;;;14.00;92.20;;;;;;5048135;28;20480;-68
2023/05/16 02:31:41;;;;;;;;;;;14.00;92.10;;;;;;5047643;28;19913;-69
2023/05/16 02:34:07;;;;;;;;;;;14.00;92.20;;;;;;5047615;28;19944;-69
2023/05/16 02:36:34;;;;;;;;;;;14.00;92.20;;;;;;5047752;28;19948;-69
2023/05/16 02:39:00;;;;;;;;;;;14.00;92.30;;;;;;5047721;28;19928;-69
2023/05/16 02:41:26;;;;;;;;;;;13.90;92.40;;;;;;5041685;28;19917;-69
2023/05/16 02:43:52;;;;;;;;;;;13.90;92.40;;;;;;5047114;28;19959;-69
2023/05/16 02:46:21;;;;;;;;;;;13.90;92.20;;;;;;5047503;28;20002;-69
2023/05/16 02:48:47;;;;;;;;;;;13.90;92.60;;;;;;5043297;28;20004;-69
2023/05/16 02:51:13;;;;;;;;;;;13.90;92.20;;;;;;5027568;28;20105;-69
2023/05/16 02:53:39;;;;;;;;;;;13.80;92.30;;;;;;5029895;28;19917;-68
2023/05/16 02:56:05;;;;;;;;;;;13.80;92.50;;;;;;5047039;28;19919;-69
2023/05/16 02:58:31;;;;;;;;;;;13.80;92.50;;;;;;5047310;28;19916;-69
2023/05/16 03:00:57;;;;;;;;;;;13.80;92.40;;;;;;5047405;28;19916;-69
2023/05/16 03:03:22;;;;;;;;;;;13.80;92.40;;;;;;5046717;28;19920;-69
2023/05/16 03:05:48;;;;;;;;;;;13.80;92.60;;;;;;5046729;28;19920;-68
2023/05/16 03:08:14;;;;;;;;;;;13.70;92.60;;;;;;5047072;28;19919;-69
2023/05/16 03:10:39;;;;;;;;;;;13.70;92.70;;;;;;5046701;28;20015;-69
2023/05/16 03:13:05;;;;;;;;;;;13.70;92.40;;;;;;5046763;28;20388;-69
2023/05/16 03:15:30;;;;;;;;;;;13.70;92.60;;;;;;5047260;28;19920;-69
2023/05/16 03:17:56;;;;;;;;;;;13.70;92.70;;;;;;5045674;28;20009;-69
2023/05/16 03:20:21;;;;;;;;;;;13.70;92.60;;;;;;5046924;28;19956;-69
2023/05/16 03:22:47;;;;;;;;;;;13.70;92.70;;;;;;5046454;28;19927;-69
2023/05/16 03:25:12;;;;;;;;;;;13.60;92.70;;;;;;5047084;28;19913;-69
2023/05/16 03:27:38;;;;;;;;;;;13.60;92.60;;;;;;5046506;28;20377;-69
2023/05/16 03:30:04;;;;;;;;;;;13.60;92.80;;;;;;5046923;28;20285;-69
2023/05/16 03:32:29;;;;;;;;;;;13.60;92.70;;;;;;5045881;28;19970;-69
2023/05/16 03:34:54;;;;;;;;;;;13.60;92.80;;;;;;5045748;28;20523;-68
2023/05/16 03:37:20;;;;;;;;;;;13.60;92.80;;;;;;5045981;28;19917;-69
2023/05/16 03:39:45;;;;;;;;;;;13.60;92.60;;;;;;5045226;28;19909;-68
2023/05/16 03:42:11;;;;;;;;;;;13.50;92.70;;;;;;5045799;28;19916;-69
2023/05/16 03:44:37;;;;;;;;;;;13.50;92.70;;;;;;5046829;28;20046;-69
2023/05/16 03:47:03;;;;;;;;;;;13.50;92.80;;;;;;5046766;28;19920;-69
2023/05/16 03:49:28;;;;;;;;;;;13.50;92.80;;;;;;5028532;28;19913;-68
2023/05/16 03:51:54;;;;;;;;;;;13.50;92.70;;;;;;5041246;28;19916;-68
2023/05/16 03:54:20;;;;;;;;;;;13.50;92.80;;;;;;5034659;28;20040;-69
2023/05/16 03:56:46;;;;;;;;;;;13.40;92.70;;;;;;5046017;28;19909;-69
2023/05/16 03:59:12;;;;;;;;;;;13.40;92.70;;;;;;5046220;28;20274;-69
2023/05/16 04:01:37;;;;;;;;;;;13.40;92.70;;;;;;5046058;28;19917;-68
2023/05/16 04:04:03;;;;;;;;;;;13.40;92.60;;;;;;5046076;28;19918;-69
2023/05/16 04:06:28;;;;;;;;;;;13.40;92.60;;;;;;5046227;28;19912;-68
2023/05/16 04:08:54;;;;;;;;;;;13.40;92.60;;;;;;5046210;28;19913;-68
2023/05/16 04:11:20;;;;;;;;;;;13.30;92.60;;;;;;5045940;28;20364;-69
2023/05/16 04:13:46;;;;;;;;;;;13.30;92.60;;;;;;5046058;28;19919;-68
2023/05/16 04:16:11;;;;;;;;;;;13.30;92.60;;;;;;5046056;28;19913;-69
2023/05/16 04:18:37;;;;;;;;;;;13.20;92.50;;;;;;5043242;28;19935;-69
2023/05/16 04:21:03;;;;;;;;;;;13.20;92.60;;;;;;5026031;28;19917;-69
2023/05/16 04:23:28;;;;;;;;;;;13.20;92.60;;;;;;5025891;28;20000;-68
2023/05/16 04:25:55;;;;;;;;;;;13.20;92.60;;;;;;5027456;28;19913;-68
2023/05/16 04:28:21;;;;;;;;;;;13.20;92.60;;;;;;5045757;28;20007;-68
2023/05/16 04:30:47;;;;;;;;;;;13.20;92.50;;;;;;5046026;28;20057;-68
2023/05/16 04:33:13;;;;;;;;;;;13.20;92.50;;;;;;5045704;28;19916;-69
2023/05/16 04:35:38;;;;;;;;;;;13.20;92.40;;;;;;5044322;28;19916;-69
2023/05/16 04:38:04;;;;;;;;;;;13.10;92.50;;;;;;5045832;28;19909;-69
2023/05/16 04:40:29;;;;;;;;;;;13.10;92.50;;;;;;5045739;28;19919;-69
2023/05/16 04:42:55;;;;;;;;;;;13.10;92.80;;;;;;5045153;28;19925;-68
2023/05/16 04:45:21;;;;;;;;;;;13.10;92.40;;;;;;5045371;28;20057;-69
2023/05/16 04:47:46;;;;;;;;;;;13.10;92.40;;;;;;5041588;28;20366;-69
2023/05/16 04:50:12;;;;;;;;;;;13.10;92.40;;;;;;5025601;28;19922;-69
2023/05/16 04:52:38;;;;;;;;;;;13.00;92.30;;;;;;5025035;28;20013;-69
2023/05/16 04:55:03;;;;;;;;;;;13.00;92.40;;;;;;5042046;28;19966;-69
2023/05/16 04:57:29;;;;;;;;;;;13.00;92.30;;;;;;5045280;28;19944;-68
2023/05/16 04:59:54;;;;;;;;;;;13.00;92.30;;;;;;5045563;28;20015;-68
2023/05/16 05:02:20;;;;;;;;;;;13.00;92.30;;;;;;5045009;28;20007;-68
2023/05/16 05:04:45;;;;;;;;;;;13.00;92.30;;;;;;5045021;28;20285;-69
2023/05/16 05:07:11;;;;;;;;;;;12.90;92.30;;;;;;5045639;28;19912;-69
2023/05/16 05:09:36;;;;;;;;;;;12.90;92.30;;;;;;5027710;28;19913;-69
2023/05/16 05:12:02;;;;;;;;;;;12.90;92.30;;;;;;5045010;28;19926;-69
2023/05/16 05:14:28;;;;;;;;;;;12.90;92.20;;;;;;5045369;28;19920;-69
2023/05/16 05:16:54;;;;;;;;;;;12.90;92.30;;;;;;5027355;28;20276;-68
2023/05/16 05:19:19;;;;;;;;;;;13.00;92.20;;;;;;5036602;28;20296;-69
2023/05/16 05:21:45;;;;;;;;;;;12.90;92.20;;;;;;5024911;28;19921;-69
2023/05/16 05:24:10;;;;;;;;;;;12.90;92.20;;;;;;5025302;28;19914;-69
2023/05/16 05:26:36;;;;;;;;;;;12.90;92.20;;;;;;5032146;28;20369;-69
2023/05/16 05:29:01;;;;;;;;;;;12.90;92.20;;;;;;5044993;28;19912;-69
2023/05/16 05:31:27;;;;;;;;;;;12.90;92.10;;;;;;5045057;28;19912;-69
2023/05/16 05:33:55;;;;;;;;;;;12.80;92.10;;;;;;5043986;28;20412;-69
2023/05/16 05:36:21;;;;;;;;;;;12.80;92.10;;;;;;5044999;28;19965;-68
2023/05/16 05:38:46;;;;;;;;;;;12.80;92.10;;;;;;5045172;28;19921;-68
2023/05/16 05:41:13;;;;;;;;;;;12.80;92.00;;;;;;5047832;28;20493;-69
2023/05/16 05:43:38;;;;;;;;;;;12.80;92.10;;;;;;5048324;28;19916;-68
2023/05/16 05:46:04;;;;;;;;;;;12.80;92.10;;;;;;5048632;28;20016;-69
2023/05/16 05:48:31;;;;;;;;;;;12.80;92.10;;;;;;5053938;28;19974;-69
2023/05/16 05:50:56;;;;;;;;;;;12.90;92.10;;;;;;5028497;28;20031;-68
2023/05/16 05:53:22;;;;;;;;;;;12.80;92.00;;;;;;5030662;28;20472;-68
2023/05/16 05:55:47;;;;;;;;;;;12.80;92.00;;;;;;5048002;28;19913;-68
2023/05/16 05:58:13;;;;;;;;;;;12.80;91.80;;;;;;5048137;28;19913;-69
2023/05/16 06:00:38;;;;;;;;;;;12.80;91.90;;;;;;5048282;28;19939;-68
2023/05/16 06:03:04;;;;;;;;;;;12.80;91.80;;;;;;5047644;28;19921;-68
2023/05/16 06:05:29;;;;;;;;;;;12.80;91.70;;;;;;5048079;28;20024;-69
2023/05/16 06:07:55;;;;;;;;;;;12.80;91.50;;;;;;5046787;28;19913;-69
2023/05/16 06:10:20;;;;;;;;;;;12.80;91.70;;;;;;5047787;28;19917;-69
2023/05/16 06:12:46;;;;;;;;;;;12.80;91.70;;;;;;5047597;28;20363;-69
2023/05/16 06:15:12;;;;;;;;;;;12.80;91.70;;;;;;5030151;28;20321;-69
2023/05/16 06:17:37;;;;;;;;;;;12.80;91.70;;;;;;5047613;28;19934;-69
2023/05/16 06:20:03;;;;;;;;;;;12.80;91.70;;;;;;5033651;28;19920;-69
2023/05/16 06:22:30;;;;;;;;;;;12.80;91.70;;;;;;5027672;28;19952;-69
2023/05/16 06:24:55;;;;;;;;;;;12.90;91.70;;;;;;5028072;28;19913;-69
2023/05/16 06:27:21;;;;;;;;;;;12.90;91.70;;;;;;5040842;28;19919;-69
2023/05/16 06:29:46;;;;;;;;;;;12.90;91.40;;;;;;5047736;28;19913;-69
2023/05/16 06:32:12;;;;;;;;;;;12.90;91.70;;;;;;5035161;28;19936;-69
2023/05/16 06:34:37;;;;;;;;;;;12.90;91.60;;;;;;5047891;28;19999;-69
2023/05/16 06:37:03;;;;;;;;;;;12.90;91.70;;;;;;5047482;28;19913;-69
2023/05/16 06:39:28;;;;;;;;;;;12.90;91.70;;;;;;5047893;28;19916;-68
2023/05/16 06:41:54;;;;;;;;;;;12.90;91.70;;;;;;5047012;28;19921;-69
2023/05/16 06:44:21;;;;;;;;;;;12.90;91.90;;;;;;5047590;28;20369;-69
2023/05/16 06:46:46;;;;;;;;;;;12.90;92.00;;;;;;5029301;28;20258;-69
2023/05/16 06:49:12;;;;;;;;;;;12.90;91.50;;;;;;5031844;28;19916;-69
2023/05/16 06:51:39;;;;;;;;;;;12.90;91.60;;;;;;5026074;28;19970;-69
2023/05/16 06:54:04;;;;;;;;;;;12.90;91.60;;;;;;5033710;28;19909;-69
2023/05/16 06:56:30;;;;;;;;;;;12.90;91.50;;;;;;5047201;28;19912;-69
2023/05/16 06:58:56;;;;;;;;;;;12.90;91.30;;;;;;5029070;28;19912;-69
2023/05/16 07:01:21;;;;;;;;;;;12.90;91.30;;;;;;5029222;28;19987;-69
2023/05/16 07:03:47;;;;;;;;;;;13.00;91.40;;;;;;5046953;28;19961;-69
2023/05/16 07:06:12;;;;;;;;;;;13.00;91.30;;;;;;5047216;28;20513;-69
2023/05/16 07:08:38;;;;;;;;;;;13.00;91.30;;;;;;5047392;28;19919;-69
2023/05/16 07:11:03;;;;;;;;;;;13.00;91.30;;;;;;5047336;28;20362;-69
2023/05/16 07:13:29;;;;;;;;;;;13.00;91.30;;;;;;5047058;28;19909;-69
2023/05/16 07:15:54;;;;;;;;;;;13.00;91.20;;;;;;5047039;28;19936;-69
2023/05/16 07:18:20;;;;;;;;;;;13.00;91.30;;;;;;5040451;28;19973;-69
2023/05/16 07:20:45;;;;;;;;;;;13.00;91.10;;;;;;5026788;28;20400;-69
2023/05/16 07:23:11;;;;;;;;;;;13.00;91.20;;;;;;5026823;28;19913;-70
2023/05/16 07:25:36;;;;;;;;;;;13.00;91.20;;;;;;5027002;28;19924;-69
2023/05/16 07:28:02;;;;;;;;;;;13.00;91.20;;;;;;5027745;28;19989;-69
2023/05/16 07:30:28;;;;;;;;;;;13.10;91.20;;;;;;5046747;28;19945;-70
2023/05/16 07:32:53;;;;;;;;;;;13.10;91.10;;;;;;5046286;28;19916;-69
2023/05/16 07:35:19;;;;;;;;;;;13.10;91.00;;;;;;5046742;28;20542;-69
2023/05/16 07:37:45;;;;;;;;;;;13.20;90.90;;;;;;5045260;28;19921;-69
2023/05/16 07:40:10;;;;;;;;;;;13.20;90.80;;;;;;5046601;28;19958;-69
2023/05/16 07:42:36;;;;;;;;;;;13.20;90.60;;;;;;5045848;28;19916;-69
2023/05/16 07:45:02;;;;;;;;;;;13.30;90.70;;;;;;5046597;28;20326;-69
2023/05/16 07:47:27;;;;;;;;;;;13.40;90.60;;;;;;5045546;28;19935;-69
2023/05/16 07:49:53;;;;;;;;;;;13.30;90.50;;;;;;5025167;28;19913;-69
2023/05/16 07:52:18;;;;;;;;;;;13.40;90.40;;;;;;5026275;28;19921;-69
2023/05/16 07:54:45;;;;;;;;;;;13.50;90.30;;;;;;5040065;28;19909;-69
2023/05/16 07:57:12;;;;;;;;;;;13.40;90.20;;;;;;5046011;28;20249;-69
2023/05/16 07:59:37;;;;;;;;;;;13.50;90.20;;;;;;5041839;28;19925;-69
2023/05/16 08:02:03;;;;;;;;;;;13.50;90.20;;;;;;5031584;28;19970;-70
2023/05/16 08:04:28;;;;;;;;;;;13.50;90.10;;;;;;5026116;28;20408;-69
2023/05/16 08:06:54;;;;;;;;;;;13.50;90.10;;;;;;5044994;28;19928;-69
2023/05/16 08:09:19;;;;;;;;;;;13.50;90.10;;;;;;5045024;28;19919;-69
2023/05/16 08:11:45;;;;;;;;;;;13.50;90.10;;;;;;5044795;28;20327;-69
2023/05/16 08:14:11;;;;;;;;;;;13.50;90.10;;;;;;5044755;28;20003;-70
2023/05/16 08:16:36;;;;;;;;;;;13.50;90.10;;;;;;5045182;28;19912;-69
2023/05/16 08:19:02;;;;;;;;;;;13.50;90.00;;;;;;5042108;28;20021;-70
2023/05/16 08:21:27;;;;;;;;;;;13.50;90.00;;;;;;5045688;28;19917;-69
2023/05/16 08:23:53;;;;;;;;;;;13.60;89.90;;;;;;5045614;28;19958;-69
2023/05/16 08:26:18;;;;;;;;;;;13.60;89.70;;;;;;5027535;28;19913;-69
2023/05/16 08:28:44;;;;;;;;;;;13.70;89.60;;;;;;5045543;28;20000;-69
2023/05/16 08:31:09;;;;;;;;;;;13.70;89.30;;;;;;5045315;28;19913;-69
2023/05/16 08:33:35;;;;;;;;;;;13.70;88.90;;;;;;5045479;28;19920;-69
2023/05/16 08:36:00;;;;;;;;;;;13.80;88.70;;;;;;5045777;28;19948;-69
2023/05/16 08:38:26;;;;;;;;;;;13.80;88.90;;;;;;5044497;28;19909;-69
2023/05/16 08:40:51;;;;;;;;;;;13.80;89.10;;;;;;5045492;28;19965;-69
2023/05/16 08:43:17;;;;;;;;;;;13.80;89.20;;;;;;5045192;28;20126;-69
2023/05/16 08:45:43;;;;;;;;;;;13.80;88.00;;;;;;5045062;28;20326;-69
2023/05/16 08:48:09;;;;;;;;;;;13.80;88.30;;;;;;5038559;28;19921;-69
2023/05/16 08:50:35;;;;;;;;;;;13.80;88.60;;;;;;5040532;28;20239;-69
2023/05/16 08:53:06;;;;;;;;;;;13.90;87.80;;;;;;5007519;28;20003;-69
2023/05/16 08:55:31;;;;;;;;;;;13.90;88.40;;;;;;5043422;28;19935;-69
2023/05/16 08:57:57;;;;;;;;;;;13.90;88.10;;;;;;5045026;28;19966;-69
2023/05/16 09:00:23;;;;;;;;;;;13.90;87.90;;;;;;5045296;28;19913;-70
2023/05/16 09:02:48;;;;;;;;;;;14.00;87.90;;;;;;5044736;28;19921;-69
2023/05/16 09:05:14;;;;;;;;;;;14.00;87.50;;;;;;5045351;28;20437;-69
2023/05/16 09:07:41;;;;;;;;;;;14.00;87.60;;;;;;5045157;28;20015;-70
2023/05/16 09:10:07;;;;;;;;;;;14.00;87.40;;;;;;5045289;28;19912;-69
2023/05/16 09:12:33;;;;;;;;;;;14.10;87.40;;;;;;5044712;28;19915;-70
2023/05/16 09:15:03;;;;;;;;;;;14.00;86.80;;;;;;5046348;28;20281;-69
2023/05/16 09:17:37;;;;;;;;;;;14.00;87.60;;;;;;5048426;28;20008;-69
2023/05/16 09:20:13;;;;;;;;;;;14.00;87.70;;;;;;5034267;28;19913;-69
2023/05/16 09:22:39;;;;;;;;;;;14.00;87.40;;;;;;5028149;28;20476;-70
2023/05/16 09:25:04;;;;;;;;;;;14.00;86.90;;;;;;5028649;28;19947;-69
2023/05/16 09:27:30;;;;;;;;;;;14.00;87.40;;;;;;5042674;28;20356;-69
2023/05/16 09:29:56;;;;;;;;;;;14.00;87.30;;;;;;5048383;28;19912;-69
2023/05/16 09:32:22;;;;;;;;;;;14.00;87.50;;;;;;5037230;28;19919;-70
2023/05/16 09:34:48;;;;;;;;;;;14.00;87.30;;;;;;5048246;28;19913;-70
2023/05/16 09:37:14;;;;;;;;;;;14.10;87.10;;;;;;5048502;28;19956;-69
2023/05/16 09:39:48;;;;;;;;;;;14.10;86.80;;;;;;5048310;28;19932;-69
2023/05/16 09:42:14;;;;;;;;;;;14.20;86.60;;;;;;5034351;28;19948;-70
2023/05/16 09:44:39;;;;;;;;;;;14.30;86.30;;;;;;5048089;28;19909;-69
2023/05/16 09:47:05;;;;;;;;;;;14.40;86.00;;;;;;5048407;28;20461;-69
2023/05/16 09:49:30;;;;;;;;;;;14.30;86.00;;;;;;5030282;28;19920;-69
2023/05/16 09:51:59;;;;;;;;;;;14.30;86.10;;;;;;5028341;28;19913;-69
2023/05/16 09:54:30;;;;;;;;;;;14.40;85.50;;;;;;5039104;28;20504;-69
2023/05/16 09:56:55;;;;;;;;;;;14.50;85.70;;;;;;5047732;28;19928;-69
2023/05/16 09:59:21;;;;;;;;;;;14.60;85.50;;;;;;5048102;28;20285;-69
2023/05/16 10:01:47;;;;;;;;;;;14.70;85.00;;;;;;5047216;28;19917;-69
2023/05/16 10:04:15;;;;;;;;;;;14.60;84.80;;;;;;5047398;28;19909;-69
2023/05/16 10:06:41;;;;;;;;;;;14.60;85.00;;;;;;5047478;28;19952;-69
2023/05/16 10:09:10;;;;;;;;;;;14.70;85.20;;;;;;5047019;28;20385;-70
2023/05/16 10:11:36;;;;;;;;;;;14.70;84.80;;;;;;5047422;28;19966;-69
2023/05/16 10:14:02;;;;;;;;;;;14.80;84.80;;;;;;5047793;28;20010;-69
2023/05/16 10:16:27;;;;;;;;;;;14.70;84.80;;;;;;5046539;28;19913;-69
2023/05/16 10:18:53;;;;;;;;;;;14.90;84.70;;;;;;5043251;28;19985;-70
2023/05/16 10:21:20;;;;;;;;;;;14.90;84.60;;;;;;5027811;28;19925;-69
2023/05/16 10:23:46;;;;;;;;;;;15.10;83.90;;;;;;5033305;28;19917;-69
2023/05/16 10:26:13;;;;;;;;;;;15.00;84.00;;;;;;5047350;28;19913;-69
2023/05/16 10:28:40;;;;;;;;;;;15.10;84.10;;;;;;5047864;28;20254;-69
2023/05/16 10:31:06;;;;;;;;;;;15.20;83.30;;;;;;5047564;28;19913;-69
2023/05/16 10:33:31;;;;;;;;;;;15.30;83.70;;;;;;5047512;28;19921;-70
2023/05/16 10:35:57;;;;;;;;;;;15.40;83.50;;;;;;5047464;28;19961;-70
2023/05/16 10:38:23;;;;;;;;;;;15.30;83.30;;;;;;5030040;28;19912;-69
2023/05/16 10:40:49;;;;;;;;;;;15.50;83.40;;;;;;5047500;27;20011;-69
2023/05/16 10:43:25;;;;;;;;;;;15.50;83.30;;;;;;5047223;28;20432;-69
2023/05/16 10:45:55;;;;;;;;;;;15.40;82.80;;;;;;5029480;28;19920;-70
2023/05/16 10:48:28;;;;;;;;;;;15.40;83.40;;;;;;5038890;28;19977;-70
2023/05/16 10:50:53;;;;;;;;;;;15.40;83.80;;;;;;5027675;28;20011;-70
2023/05/16 10:53:28;;;;;;;;;;;15.40;83.90;;;;;;5027281;28;19909;-70
2023/05/16 10:55:59;;;;;;;;;;;15.40;83.50;;;;;;5046662;28;19981;-70
2023/05/16 10:58:37;;;;;;;;;;;15.30;83.70;;;;;;5047249;28;19969;-70
2023/05/16 11:01:21;;;;;;;;;;;15.30;84.00;;;;;;5047148;28;19909;-70
2023/05/16 11:03:55;;;;;;;;;;;15.30;84.10;;;;;;5027105;28;19924;-69
2023/05/16 11:06:25;;;;;;;;;;;15.40;84.00;;;;;;5009690;28;19920;-69
2023/05/16 11:09:16;;;;;;;;;;;15.50;83.70;;;;;;5027277;28;19913;-70
2023/05/16 11:11:45;;;;;;;;;;;15.60;83.30;;;;;;5024786;28;19920;-71
2023/05/16 11:14:27;;;;;;;;;;;15.70;83.20;;;;;;5027044;28;19917;-70
2023/05/16 11:16:58;;;;;;;;;;;15.80;83.00;;;;;;5027148;28;19913;-70
2023/05/16 11:19:29;;;;;;;;;;;15.90;82.90;;;;;;5025990;28;19920;-70
2023/05/16 11:22:14;;;;;;;;;;;15.90;82.60;;;;;;5046535;28;19917;-70
2023/05/16 11:24:47;;;;;;;;;;;15.90;82.30;;;;;;5046706;28;19944;-70
2023/05/16 11:27:17;;;;;;;;;;;15.90;81.40;;;;;;5046671;28;19981;-71
2023/05/16 11:29:43;;;;;;;;;;;15.90;82.50;;;;;;5028869;28;19913;-70
2023/05/16 11:32:09;;;;;;;;;;;15.90;82.40;;;;;;5033717;28;19917;-70
2023/05/16 11:34:36;;;;;;;;;;;16.00;82.40;;;;;;5046690;28;20512;-70
2023/05/16 11:37:02;;;;;;;;;;;16.00;82.20;;;;;;5046179;28;20261;-70
2023/05/16 11:39:29;;;;;;;;;;;16.10;81.90;;;;;;5046575;28;19985;-70
2023/05/16 11:41:54;;;;;;;;;;;16.10;81.80;;;;;;5046101;28;19973;-69
2023/05/16 11:44:20;;;;;;;;;;;16.00;82.10;;;;;;5046489;28;19913;-69
2023/05/16 11:46:46;;;;;;;;;;;16.00;81.60;;;;;;5046454;28;20020;-70
2023/05/16 11:49:12;;;;;;;;;;;15.90;82.30;;;;;;5031179;28;19913;-71
2023/05/16 11:51:38;;;;;;;;;;;15.90;82.40;;;;;;5026560;28;19913;-70
2023/05/16 11:54:04;;;;;;;;;;;15.80;82.90;;;;;;5034543;28;19916;-70
2023/05/16 11:56:30;;;;;;;;;;;15.80;83.20;;;;;;5045827;28;19966;-70
2023/05/16 11:58:58;;;;;;;;;;;15.70;83.50;;;;;;5046271;28;19920;-71
2023/05/16 12:01:23;;;;;;;;;;;15.70;83.80;;;;;;5046013;28;19926;-70
2023/05/16 12:03:56;;;;;;;;;;;15.70;84.10;;;;;;5045657;28;19913;-70
2023/05/16 12:06:22;;;;;;;;;;;15.60;84.20;;;;;;5046069;28;20377;-70
2023/05/16 12:08:50;;;;;;;;;;;15.70;83.40;;;;;;5045664;28;19947;-70
2023/05/16 12:11:16;;;;;;;;;;;15.80;83.50;;;;;;5041207;27;20425;-70
2023/05/16 12:13:42;;;;;;;;;;;15.90;83.10;;;;;;5044757;28;20011;-69
2023/05/16 12:16:07;;;;;;;;;;;15.90;83.30;;;;;;5027408;28;19912;-70
2023/05/16 12:18:33;;;;;;;;;;;16.00;83.30;;;;;;5035251;28;19913;-70
2023/05/16 12:20:58;;;;;;;;;;;16.00;83.00;;;;;;5025380;28;19921;-71
2023/05/16 12:23:25;;;;;;;;;;;16.10;83.20;;;;;;5025116;28;20753;-70
2023/05/16 12:25:54;;;;;;;;;;;16.30;83.00;;;;;;5027368;28;19914;-70
2023/05/16 12:28:20;;;;;;;;;;;16.40;82.70;;;;;;5027221;28;19966;-70
2023/05/16 12:30:46;;;;;;;;;;;16.40;82.50;;;;;;5045113;28;19932;-70
2023/05/16 12:33:13;;;;;;;;;;;16.50;82.10;;;;;;5044865;28;19912;-70
2023/05/16 12:35:40;;;;;;;;;;;16.40;82.40;;;;;;5044840;28;19943;-70
2023/05/16 12:38:06;;;;;;;;;;;16.40;82.80;;;;;;5044560;28;19920;-70
2023/05/16 12:40:32;;;;;;;;;;;16.50;82.60;;;;;;5044865;28;20267;-70
2023/05/16 12:42:57;;;;;;;;;;;16.50;82.60;;;;;;5044568;28;19912;-71
2023/05/16 12:45:26;;;;;;;;;;;16.60;82.20;;;;;;5045125;28;19927;-70
2023/05/16 12:47:51;;;;;;;;;;;16.70;82.20;;;;;;5022535;28;19920;-70
2023/05/16 12:50:17;;;;;;;;;;;16.80;82.60;;;;;;5024812;28;19928;-70
2023/05/16 12:52:48;;;;;;;;;;;16.80;82.50;;;;;;5024661;28;19952;-70
2023/05/16 12:55:14;;;;;;;;;;;16.90;82.50;;;;;;5040303;28;19912;-70
2023/05/16 12:57:43;;;;;;;;;;;17.00;81.90;;;;;;5044000;28;20575;-70
2023/05/16 13:00:10;;;;;;;;;;;17.10;81.90;;;;;;5043948;28;20377;-70
2023/05/16 13:02:36;;;;;;;;;;;17.30;81.40;;;;;;5043514;28;19961;-70
2023/05/16 13:05:02;;;;;;;;;;;17.40;81.10;;;;;;5043189;28;20358;-70
2023/05/16 13:07:27;;;;;;;;;;;17.40;80.80;;;;;;5044107;28;19909;-71
2023/05/16 13:09:53;;;;;;;;;;;17.40;80.10;;;;;;5044748;28;20425;-70
2023/05/16 13:12:18;;;;;;;;;;;17.30;80.60;;;;;;5044414;28;19917;-70
2023/05/16 13:14:44;;;;;;;;;;;17.30;81.00;;;;;;5043116;28;19909;-70
2023/05/16 13:17:10;;;;;;;;;;;17.30;80.10;;;;;;5044382;28;20269;-70
2023/05/16 13:19:36;;;;;;;;;;;17.30;81.00;;;;;;5033727;28;19916;-70
2023/05/16 13:22:01;;;;;;;;;;;17.30;80.80;;;;;;5026406;28;20577;-70
2023/05/16 13:24:27;;;;;;;;;;;17.30;80.80;;;;;;5041719;28;19965;-71
2023/05/16 13:26:52;;;;;;;;;;;17.30;80.90;;;;;;5044191;28;19913;-70
2023/05/16 13:29:18;;;;;;;;;;;17.30;80.40;;;;;;5036401;27;19920;-70
2023/05/16 13:31:43;;;;;;;;;;;17.30;80.70;;;;;;5043485;28;19952;-70
2023/05/16 13:34:09;;;;;;;;;;;17.20;79.90;;;;;;5044141;28;19916;-70
2023/05/16 13:36:35;;;;;;;;;;;17.20;79.70;;;;;;5043908;28;19928;-70
2023/05/16 13:39:01;;;;;;;;;;;17.20;79.70;;;;;;5026281;28;19967;-71
2023/05/16 13:41:26;;;;;;;;;;;17.10;79.90;;;;;;5043537;28;19932;-71
2023/05/16 13:43:52;;;;;;;;;;;17.10;80.00;;;;;;5043807;28;20003;-71
2023/05/16 13:46:17;;;;;;;;;;;17.00;80.10;;;;;;5039874;27;20000;-71
2023/05/16 13:48:43;;;;;;;;;;;17.00;80.90;;;;;;5043363;28;19913;-71
2023/05/16 13:51:10;;;;;;;;;;;17.00;80.50;;;;;;5044013;28;19917;-71
2023/05/16 13:53:35;;;;;;;;;;;16.90;80.60;;;;;;5038133;28;19913;-71
2023/05/16 13:56:01;;;;;;;;;;;16.90;80.90;;;;;;5026214;28;19919;-71
2023/05/16 13:58:26;;;;;;;;;;;17.10;81.30;;;;;;5040466;28;20281;-71
2023/05/16 14:00:52;;;;;;;;;;;17.20;81.10;;;;;;5037930;28;19913;-71
2023/05/16 14:03:17;;;;;;;;;;;17.30;79.50;;;;;;5046202;28;20004;-71
2023/05/16 14:05:43;;;;;;;;;;;17.30;79.50;;;;;;5046785;28;19912;-71
2023/05/16 14:08:08;;;;;;;;;;;17.30;78.50;;;;;;5046783;28;19917;-71
2023/05/16 14:10:34;;;;;;;;;;;17.40;78.80;;;;;;5047043;28;19920;-71
2023/05/16 14:12:59;;;;;;;;;;;17.40;78.90;;;;;;5046723;28;20285;-71